Terminal Aerodrome Forecast
Issued by NWS

Home | Current Version | Previous Version | Text Only | Print | Product List | Glossary On
Versions: 1 2 3 4 5 6 7 8 9 10 11 12 13 14 15 16
000
FTUS41 KBGM 281100
TAFITH
TAF
KITH 281126Z 2812/2912 32012G22KT P6SM SCT006 OVC015
      TEMPO 2812/2815 4SM -SHRA BR OVC006
     FM281800 33010G20KT P6SM SCT015 OVC025
     FM282100 33008KT P6SM OVC025=

USA.gov is the U.S. government's official web portal to all federal, state and local government web resources and services.